createdAt,value
2022-09-03T00:02:39.058Z,17.70
2022-09-03T00:05:11.994Z,17.56
2022-09-03T00:08:00.287Z,17.53
2022-09-03T00:10:30.517Z,17.62
2022-09-03T00:13:00.513Z,17.65
2022-09-03T00:15:28.311Z,17.55
2022-09-03T00:18:01.708Z,17.82
2022-09-03T00:20:33.870Z,17.72
2022-09-03T00:23:02.018Z,17.63
2022-09-03T00:25:30.463Z,17.68
2022-09-03T00:27:58.228Z,17.59
2022-09-03T00:30:26.066Z,17.50
2022-09-03T00:32:56.608Z,17.64
2022-09-03T00:35:25.602Z,17.41
2022-09-03T00:37:53.353Z,17.51
2022-09-03T00:40:33.170Z,17.49
2022-09-03T00:43:09.723Z,17.35
2022-09-03T00:45:44.307Z,17.43
2022-09-03T00:48:11.815Z,17.47
2022-09-03T00:50:39.954Z,17.34
2022-09-03T00:53:07.389Z,17.48
2022-09-03T00:55:39.486Z,17.38
2022-09-03T00:58:16.167Z,17.38
2022-09-03T01:00:46.567Z,17.17
2022-09-03T01:03:16.964Z,17.15
2022-09-03T01:05:56.553Z,17.22
2022-09-03T01:08:44.716Z,17.27
2022-09-03T01:11:19.280Z,17.27
2022-09-03T01:13:55.178Z,17.06
2022-09-03T01:16:35.753Z,17.08
2022-09-03T01:19:05.773Z,17.13
2022-09-03T01:21:34.911Z,16.91
2022-09-03T01:24:02.222Z,17.06
2022-09-03T01:26:31.686Z,17.22
2022-09-03T01:28:59.444Z,17.09
2022-09-03T01:31:50.112Z,17.00
2022-09-03T01:34:20.564Z,16.93
2022-09-03T01:37:06.879Z,16.95
2022-09-03T01:39:34.514Z,16.97
2022-09-03T01:42:20.703Z,16.99
2022-09-03T01:44:53.071Z,17.00
2022-09-03T01:47:26.693Z,17.05
2022-09-03T01:49:57.938Z,17.05
2022-09-03T01:52:34.612Z,17.02
2022-09-03T01:55:13.993Z,16.93
2022-09-03T01:57:42.138Z,16.96
2022-09-03T02:00:20.654Z,17.15
2022-09-03T02:02:51.521Z,16.95
2022-09-03T02:05:19.281Z,16.81
2022-09-03T02:07:48.216Z,17.02
2022-09-03T02:10:16.749Z,16.81
2022-09-03T02:12:48.670Z,16.96
2022-09-03T02:15:17.868Z,16.92
2022-09-03T02:17:47.555Z,17.03
2022-09-03T02:20:16.744Z,16.84
2022-09-03T02:22:44.147Z,17.03
2022-09-03T02:25:11.676Z,16.80
2022-09-03T02:27:41.184Z,16.75
2022-09-03T02:30:08.936Z,16.85
2022-09-03T02:32:36.440Z,16.82
2022-09-03T02:35:04.314Z,17.03
2022-09-03T02:37:31.810Z,17.09
2022-09-03T02:39:59.423Z,17.13
2022-09-03T02:42:27.332Z,16.89
2022-09-03T02:44:56.421Z,16.93
2022-09-03T02:47:23.926Z,16.92
2022-09-03T02:49:51.356Z,17.15
2022-09-03T02:52:18.744Z,17.00
2022-09-03T02:54:46.191Z,17.05
2022-09-03T02:57:14.385Z,16.92
2022-09-03T02:59:44.266Z,17.00
2022-09-03T03:02:13.204Z,17.02
2022-09-03T03:04:40.720Z,17.01
2022-09-03T03:07:08.107Z,16.92
2022-09-03T03:09:35.950Z,16.72
2022-09-03T03:12:04.178Z,16.80
2022-09-03T03:14:31.733Z,16.71
2022-09-03T03:16:59.390Z,16.85
2022-09-03T03:19:26.841Z,16.82
2022-09-03T03:21:54.240Z,16.78
2022-09-03T03:24:21.680Z,16.84
2022-09-03T03:26:49.141Z,16.94
2022-09-03T03:29:19.911Z,16.71
2022-09-03T03:31:47.267Z,16.61
2022-09-03T03:34:15.436Z,16.63
2022-09-03T03:36:43.735Z,16.75
2022-09-03T03:39:11.371Z,16.91
2022-09-03T03:41:39.353Z,16.90
2022-09-03T03:44:07.059Z,16.73
2022-09-03T03:46:35.661Z,16.80
2022-09-03T03:49:03.208Z,16.78
2022-09-03T03:51:30.706Z,16.83
2022-09-03T03:54:01.081Z,16.75
2022-09-03T03:56:32.109Z,16.79
2022-09-03T03:58:59.587Z,16.72
2022-09-03T04:01:27.313Z,16.82
2022-09-03T04:03:55.440Z,16.64
2022-09-03T04:06:23.995Z,16.79
2022-09-03T04:08:51.634Z,16.85
2022-09-03T04:11:20.879Z,16.82
2022-09-03T04:13:48.351Z,16.87
2022-09-03T04:16:16.845Z,17.07
2022-09-03T04:18:44.690Z,17.04
2022-09-03T04:21:13.432Z,16.91
2022-09-03T04:23:42.066Z,17.11
2022-09-03T04:26:10.101Z,17.33
2022-09-03T04:28:37.822Z,17.42
2022-09-03T04:31:06.598Z,17.37
2022-09-03T04:33:35.788Z,17.41
2022-09-03T04:36:10.258Z,17.51
2022-09-03T04:38:38.627Z,17.44
2022-09-03T04:41:06.489Z,17.49
2022-09-03T04:43:34.150Z,17.72
2022-09-03T04:46:02.828Z,17.71
2022-09-03T04:48:30.654Z,17.60
2022-09-03T04:51:08.002Z,17.77
2022-09-03T04:53:38.211Z,17.57
2022-09-03T04:56:14.945Z,17.80
2022-09-03T04:58:44.329Z,17.60
2022-09-03T05:01:12.232Z,17.71
2022-09-03T05:03:39.904Z,17.49
2022-09-03T05:06:08.916Z,17.70
2022-09-03T05:08:38.921Z,17.95
2022-09-03T05:11:06.787Z,17.77
2022-09-03T05:13:34.502Z,17.77
2022-09-03T05:16:06.702Z,17.65
2022-09-03T05:18:36.059Z,17.61
2022-09-03T05:21:04.354Z,17.54
2022-09-03T05:23:36.972Z,17.22
2022-09-03T05:26:10.967Z,17.64
2022-09-03T05:28:39.258Z,17.85
2022-09-03T05:31:08.066Z,17.82
2022-09-03T05:33:36.117Z,18.12
2022-09-03T05:36:04.382Z,18.23
2022-09-03T05:38:31.883Z,18.57
2022-09-03T05:41:00.742Z,18.43
2022-09-03T05:43:28.434Z,18.40
2022-09-03T05:46:00.680Z,18.21
2022-09-03T05:48:31.687Z,18.66
2022-09-03T05:51:00.640Z,18.65
2022-09-03T05:53:28.466Z,18.60
2022-09-03T05:55:59.779Z,18.67
2022-09-03T05:58:31.048Z,18.92
2022-09-03T06:00:59.000Z,19.13
2022-09-03T06:03:26.645Z,19.15
2022-09-03T06:05:54.699Z,19.23
2022-09-03T06:08:22.197Z,19.34
2022-09-03T06:10:49.663Z,19.51
2022-09-03T06:13:17.327Z,19.84
2022-09-03T06:15:44.727Z,19.92
2022-09-03T06:18:12.248Z,20.07
2022-09-03T06:20:40.370Z,19.99
2022-09-03T06:23:07.750Z,19.74
2022-09-03T06:25:35.240Z,20.13
2022-09-03T06:28:03.127Z,20.06
2022-09-03T06:30:30.945Z,19.95
2022-09-03T06:32:59.358Z,20.23
2022-09-03T06:35:26.702Z,20.30
2022-09-03T06:37:57.023Z,20.30
2022-09-03T06:40:26.409Z,20.40
2022-09-03T06:42:59.358Z,20.59
2022-09-03T06:45:26.836Z,20.66
2022-09-03T06:47:54.233Z,20.95
2022-09-03T06:50:21.928Z,21.04
2022-09-03T06:52:55.635Z,20.81
2022-09-03T06:55:23.214Z,21.04
2022-09-03T06:57:57.164Z,20.86
2022-09-03T07:00:24.726Z,21.04
2022-09-03T07:02:59.170Z,21.16
2022-09-03T07:05:28.766Z,21.28
2022-09-03T07:07:56.417Z,21.64
2022-09-03T07:10:24.230Z,21.64
2022-09-03T07:12:51.657Z,21.69
2022-09-03T07:15:20.022Z,22.22
2022-09-03T07:17:48.200Z,22.19
2022-09-03T07:20:15.820Z,22.12
2022-09-03T07:22:43.318Z,22.78
2022-09-03T07:25:11.656Z,24.59
2022-09-03T07:27:39.129Z,25.21
2022-09-03T07:30:09.834Z,26.42
2022-09-03T07:32:41.095Z,26.21
2022-09-03T07:35:09.543Z,28.00
2022-09-03T07:37:38.623Z,27.87
2022-09-03T07:40:06.509Z,28.71
2022-09-03T07:42:36.223Z,27.41
2022-09-03T11:04:49.578Z,25.63
2022-09-03T11:07:18.111Z,26.04
2022-09-03T11:09:45.649Z,26.10
2022-09-03T11:12:22.040Z,26.00
2022-09-03T11:14:51.020Z,25.98
2022-09-03T11:17:22.667Z,26.05
2022-09-03T11:19:51.701Z,26.04
2022-09-03T11:22:20.962Z,25.87
2022-09-03T11:24:50.659Z,25.87
2022-09-03T11:27:20.884Z,25.65
2022-09-03T11:30:00.722Z,25.66
2022-09-03T11:32:35.747Z,25.94
2022-09-03T11:35:03.386Z,26.08
2022-09-03T11:37:31.397Z,26.10
2022-09-03T11:39:58.944Z,25.97
2022-09-03T11:42:26.881Z,26.08
2022-09-03T11:44:59.413Z,26.32
2022-09-03T11:47:40.458Z,26.24
2022-09-03T11:50:09.748Z,26.16
2022-09-03T11:52:40.883Z,26.30
2022-09-03T11:55:08.719Z,25.79
2022-09-03T11:57:41.676Z,25.72
2022-09-03T12:00:12.166Z,25.44
2022-09-03T12:02:46.505Z,25.29
2022-09-03T12:05:37.263Z,25.30
2022-09-03T12:08:23.555Z,25.50
2022-09-03T12:10:51.166Z,25.80
2022-09-03T12:13:18.831Z,25.75
2022-09-03T12:15:52.623Z,25.50
2022-09-03T12:18:23.998Z,25.55
2022-09-03T12:20:58.830Z,25.46
2022-09-03T12:23:27.170Z,25.30
2022-09-03T12:25:54.614Z,25.48
2022-09-03T12:28:23.689Z,25.44
2022-09-03T12:30:53.523Z,25.31
2022-09-03T12:33:21.865Z,25.14
2022-09-03T12:35:58.719Z,24.98
2022-09-03T12:38:27.584Z,25.37
2022-09-03T12:43:46.215Z,25.05
2022-09-03T12:46:17.988Z,25.00
2022-09-03T12:51:54.350Z,24.97
2022-09-03T12:54:22.451Z,25.00
2022-09-03T12:57:08.833Z,25.18
2022-09-03T12:59:38.660Z,25.12
2022-09-03T13:02:12.076Z,25.22
2022-09-03T13:04:39.567Z,25.31
2022-09-03T13:07:07.862Z,25.27
2022-09-03T13:09:36.586Z,25.20
2022-09-03T13:12:07.548Z,25.12
2022-09-03T13:14:47.430Z,25.09
2022-09-03T13:17:14.821Z,24.98
2022-09-03T13:19:45.179Z,25.07
2022-09-03T13:22:38.802Z,25.14
2022-09-03T13:25:09.421Z,25.13
2022-09-03T13:27:43.356Z,25.17
2022-09-03T13:30:13.972Z,25.06
2022-09-03T13:32:43.638Z,24.85
2022-09-03T13:35:14.855Z,24.68
2022-09-03T13:37:45.163Z,24.65
2022-09-03T13:40:16.214Z,24.66
2022-09-03T13:43:03.012Z,24.52
2022-09-03T13:45:40.239Z,24.62
2022-09-03T13:48:33.454Z,24.56
2022-09-03T13:51:10.132Z,24.61
2022-09-03T13:53:48.791Z,24.55
2022-09-03T13:56:19.052Z,24.57
2022-09-03T13:59:07.248Z,24.62
2022-09-03T14:01:47.386Z,24.53
2022-09-03T14:04:18.112Z,24.44
2022-09-03T14:06:57.921Z,24.24
2022-09-03T14:09:45.376Z,24.20
2022-09-03T14:12:19.164Z,24.13
2022-09-03T14:15:03.839Z,24.11
2022-09-03T14:17:41.053Z,24.18
2022-09-03T14:20:19.892Z,24.13
2022-09-03T14:23:02.763Z,23.95
2022-09-03T14:25:30.507Z,24.07
2022-09-03T14:28:33.993Z,23.86
2022-09-03T14:31:04.735Z,24.02
2022-09-03T14:33:59.077Z,23.84
2022-09-03T14:36:29.904Z,23.89
2022-09-03T14:39:06.632Z,23.80
2022-09-03T14:41:46.048Z,24.00
2022-09-03T14:44:23.151Z,23.92
2022-09-03T14:47:16.927Z,23.79
2022-09-03T14:49:58.184Z,23.94
2022-09-03T14:52:44.283Z,23.81
2022-09-03T14:55:24.884Z,23.78
2022-09-03T14:57:55.662Z,23.62
2022-09-03T15:00:31.715Z,23.75
2022-09-03T15:03:14.500Z,23.61
2022-09-03T15:05:46.225Z,23.49
2022-09-03T15:08:32.167Z,23.36
2022-09-03T15:11:00.891Z,23.48
2022-09-03T15:13:33.549Z,23.29
2022-09-03T15:16:01.831Z,23.26
2022-09-03T15:18:50.291Z,23.25
2022-09-03T15:21:36.627Z,23.15
2022-09-03T15:24:19.975Z,23.12
2022-09-03T15:26:51.574Z,23.16
2022-09-03T15:29:30.770Z,23.11
2022-09-03T15:32:17.467Z,22.99
2022-09-03T15:34:50.975Z,23.13
2022-09-03T15:37:28.558Z,22.95
2022-09-03T15:40:05.365Z,22.92
2022-09-03T15:42:34.442Z,22.80
2022-09-03T15:45:22.540Z,22.91
2022-09-03T15:47:54.483Z,22.79
2022-09-03T15:50:35.072Z,22.60
2022-09-03T15:53:05.442Z,22.68
2022-09-03T15:55:40.276Z,22.79
2022-09-03T15:58:10.674Z,22.62
2022-09-03T16:00:50.335Z,22.52
2022-09-03T16:03:23.949Z,22.69
2022-09-03T16:05:57.057Z,22.71
2022-09-03T16:08:42.410Z,22.64
2022-09-03T16:11:13.215Z,22.62
2022-09-03T16:14:01.673Z,22.55
2022-09-03T16:16:42.903Z,22.62
2022-09-03T16:19:23.962Z,22.46
2022-09-03T16:21:55.829Z,22.58
2022-09-03T16:24:25.291Z,22.45
2022-09-03T16:27:00.618Z,22.47
2022-09-03T16:29:28.738Z,22.57
2022-09-03T16:32:12.636Z,22.66
2022-09-03T16:34:48.952Z,22.42
2022-09-03T16:37:22.546Z,22.34
2022-09-03T16:39:55.645Z,22.58
2022-09-03T16:42:29.476Z,22.59
2022-09-03T16:45:05.723Z,22.51
2022-09-03T16:47:39.401Z,22.54
2022-09-03T16:50:27.741Z,22.52
2022-09-03T16:53:15.422Z,22.44
2022-09-03T16:55:46.027Z,22.36
2022-09-03T16:58:25.346Z,22.28
2022-09-03T17:00:52.970Z,22.25
2022-09-03T17:03:26.776Z,22.35
2022-09-03T17:05:57.507Z,22.18
2022-09-03T17:08:32.302Z,22.13
2022-09-03T17:11:38.288Z,22.08
2022-09-03T17:14:22.336Z,21.97
2022-09-03T17:16:53.473Z,22.10
2022-09-03T17:19:27.135Z,21.94
2022-09-03T17:22:03.685Z,22.00
2022-09-03T17:25:04.209Z,21.98
2022-09-03T17:27:35.511Z,21.83
2022-09-03T17:30:04.971Z,21.76
2022-09-03T17:32:39.715Z,21.70
2022-09-03T17:35:12.221Z,21.81
2022-09-03T17:37:55.289Z,21.69
2022-09-03T17:40:26.187Z,21.67
2022-09-03T17:43:02.398Z,21.73
2022-09-03T17:45:57.366Z,21.70
2022-09-03T17:48:27.681Z,21.58
2022-09-03T17:50:55.490Z,21.52
2022-09-03T17:53:27.049Z,21.54
2022-09-03T17:55:55.838Z,21.62
2022-09-03T17:58:31.593Z,21.69
2022-09-03T18:00:59.465Z,21.63
2022-09-03T18:03:47.187Z,21.51
2022-09-03T18:06:20.876Z,21.54
2022-09-03T18:08:48.385Z,21.54
2022-09-03T18:11:27.939Z,21.61
2022-09-03T18:14:01.428Z,21.68
2022-09-03T18:16:32.642Z,21.75
2022-09-03T18:19:02.909Z,21.52
2022-09-03T18:21:49.859Z,21.63
2022-09-03T18:24:50.829Z,21.53
2022-09-03T18:27:39.516Z,21.31
2022-09-03T18:30:26.738Z,21.26
2022-09-03T18:33:12.952Z,21.38
2022-09-03T18:35:59.515Z,21.41
2022-09-03T18:38:46.558Z,21.29
2022-09-03T18:41:44.916Z,21.30
2022-09-03T18:44:31.039Z,21.31
2022-09-03T18:50:32.544Z,21.02
2022-09-03T18:53:18.943Z,20.83
2022-09-03T18:56:05.091Z,20.54
2022-09-03T18:59:00.364Z,20.53
2022-09-03T19:01:56.748Z,20.14
2022-09-03T19:04:45.920Z,19.95
2022-09-03T19:07:37.842Z,19.88
2022-09-03T19:10:32.706Z,19.77
2022-09-03T19:13:27.605Z,19.47
2022-09-03T19:16:17.918Z,19.42
2022-09-03T19:19:22.445Z,19.56
2022-09-03T19:22:09.837Z,19.58
2022-09-03T19:24:56.105Z,19.28
2022-09-03T19:28:00.076Z,19.30
2022-09-03T19:30:55.787Z,19.27
2022-09-03T19:33:57.301Z,19.13
2022-09-03T19:36:49.492Z,19.08
2022-09-03T19:39:38.738Z,19.08
2022-09-03T19:42:24.936Z,18.84
2022-09-03T19:45:19.355Z,18.85
2022-09-03T19:48:24.424Z,19.01
2022-09-03T19:51:36.856Z,18.95
2022-09-03T19:54:23.626Z,18.83
2022-09-03T19:57:09.920Z,18.92
2022-09-03T19:59:57.843Z,18.79
2022-09-03T20:02:44.629Z,18.56
2022-09-03T20:05:32.750Z,18.45
2022-09-03T20:08:19.047Z,18.15
2022-09-03T20:10:49.834Z,17.99
2022-09-03T20:13:18.755Z,17.72
2022-09-03T20:15:49.663Z,17.35
2022-09-03T20:18:37.428Z,17.18
2022-09-03T20:21:04.953Z,16.82
2022-09-03T20:23:40.096Z,16.70
2022-09-03T20:26:26.084Z,16.41
2022-09-03T20:29:08.822Z,16.55
2022-09-03T20:31:40.036Z,16.23
2022-09-03T20:34:17.045Z,16.15
2022-09-03T20:37:04.431Z,16.20
2022-09-03T20:39:38.764Z,15.76
2022-09-03T20:42:06.301Z,15.88
2022-09-03T20:44:52.327Z,15.77
2022-09-03T20:47:22.866Z,15.74
2022-09-03T20:49:54.050Z,15.38
2022-09-03T20:52:23.404Z,15.72
2022-09-03T20:54:59.257Z,15.67
2022-09-03T20:57:45.521Z,15.72
2022-09-03T21:00:16.601Z,15.57
2022-09-03T21:03:03.817Z,15.49
2022-09-03T21:05:51.715Z,15.40
2022-09-03T21:08:26.028Z,15.44
2022-09-03T21:10:58.286Z,15.61
2022-09-03T21:13:44.482Z,15.55
2022-09-03T21:16:12.260Z,15.10
2022-09-03T21:18:52.080Z,15.27
2022-09-03T21:21:23.217Z,15.36
2022-09-03T21:24:01.876Z,15.25
2022-09-03T21:26:30.165Z,15.32
2022-09-03T21:29:00.558Z,15.42
2022-09-03T21:31:35.165Z,15.42
2022-09-03T21:34:08.644Z,15.18
2022-09-03T21:36:37.752Z,15.15
2022-09-03T21:39:23.998Z,15.24
2022-09-03T21:42:02.937Z,15.30
2022-09-03T21:44:39.636Z,15.26
2022-09-03T21:47:11.025Z,15.02
2022-09-03T21:49:40.645Z,15.21
2022-09-03T21:52:10.016Z,15.17
2022-09-03T21:54:37.431Z,15.18
2022-09-03T21:57:23.597Z,15.04
2022-09-03T22:00:10.036Z,14.86
2022-09-03T22:02:43.537Z,14.69
2022-09-03T22:05:11.367Z,14.79
2022-09-03T22:07:42.638Z,14.97
2022-09-03T22:10:16.669Z,15.08
2022-09-03T22:12:55.296Z,14.95
2022-09-03T22:15:23.915Z,14.87
2022-09-03T22:17:56.045Z,14.87
2022-09-03T22:20:24.238Z,14.95
2022-09-03T22:22:57.744Z,15.02
2022-09-03T22:25:33.001Z,14.86
2022-09-03T22:28:03.286Z,14.74
2022-09-03T22:30:34.863Z,14.91
2022-09-03T22:33:07.465Z,14.59
2022-09-03T22:35:35.006Z,14.65
2022-09-03T22:38:14.575Z,14.39
2022-09-03T22:40:45.797Z,14.65
2022-09-03T22:43:21.780Z,14.75
2022-09-03T22:45:56.592Z,14.53
2022-09-03T22:48:42.836Z,14.62
2022-09-03T22:51:10.323Z,14.75
2022-09-03T22:53:45.059Z,14.74
2022-09-03T22:56:13.732Z,14.60
2022-09-03T22:58:49.922Z,14.56
2022-09-03T23:01:18.268Z,14.55
2022-09-03T23:03:48.723Z,14.57
2022-09-03T23:06:22.710Z,14.53
2022-09-03T23:09:09.583Z,14.62
2022-09-03T23:11:39.693Z,14.58
2022-09-03T23:14:09.871Z,14.47
2022-09-03T23:16:47.260Z,14.49
2022-09-03T23:21:49.766Z,14.51
2022-09-03T23:24:19.185Z,14.57
2022-09-03T23:26:49.576Z,14.54
2022-09-03T23:29:36.854Z,14.51
2022-09-03T23:32:05.504Z,14.38
2022-09-03T23:34:33.658Z,14.41
2022-09-03T23:37:33.076Z,14.27
2022-09-03T23:40:22.336Z,14.41
2022-09-03T23:43:08.775Z,14.44
2022-09-03T23:45:36.333Z,14.39
2022-09-03T23:48:13.048Z,14.37
2022-09-03T23:50:46.355Z,14.11
2022-09-03T23:53:18.205Z,14.26
2022-09-03T23:56:05.283Z,14.23
2022-09-03T23:58:53.953Z,14.07
